Terminal Aerodrome Forecast
Issued by NWS Pocatello, ID

Home | Current Version | Previous Version | Text Only | Print | Product List | Glossary On
Versions: 1 2 3 4 5 6 7 8 9 10 11 12 13 14 15 16 17 18 19 20 21 22 23 24 25 26
000
FTUS45 KPIH 280300 AAA
TAFPIH
TAF AMD
KPIH 280302Z 2803/2824 19009KT P6SM -SHRA SCT010 OVC035
     FM280600 20009KT 6SM -RA BR SCT010 OVC025
     FM281000 21008KT 4SM -RA BR BKN007 OVC010
     FM281500 24008KT P6SM SCT007 OVC015=

USA.gov is the U.S. government's official web portal to all federal, state and local government web resources and services.